Dunreith, Indiana
Current Conditions -  °F | °C
As of 5:53 AM on Saturday 25 Oct 2014 (Local Time) from KGEZ Reporting Station
Broken Clouds Broken Clouds  
Wind Chill: 53°   Ceiling: 7000
Heat Index: 53°   Visibility: 7mi
Dew Point: 49°   Wind: 8mph
Humidity: 86%   Direction: 180°S
Pressure: 29.97"   Gusts: NA
Location:  39.8°N, 85.44°W
Report Text: KGEZ 250953Z AUTO 18007KT 7SM SCT041 SCT049 BKN070 12/09 A2997 RMK AO2 SLP146 T01170094
Loading
Personal Weather Stations






























Interactive Weather Map
Tropical Storm Tracking
New forecast layout! Learn more

10-Day Weather Forecast

Advertisements
Track Severe Weather on mobile